sensor_id;sensor_type;location;lat;lon;timestamp;pressure;altitude;pressure_sealevel;temperature;humidity
23659;BME280;12006;42.666;23.326;2023-03-04T00:00:28;-24003.34;;;6.67;100.00
23659;BME280;12006;42.666;23.326;2023-03-04T00:02:53;-24004.91;;;6.71;100.00
23659;BME280;12006;42.666;23.326;2023-03-04T00:05:19;-24005.41;;;6.73;100.00
23659;BME280;12006;42.666;23.326;2023-03-04T00:07:44;-24004.91;;;6.71;100.00
23659;BME280;12006;42.666;23.326;2023-03-04T00:10:10;-24002.84;;;6.65;100.00
23659;BME280;12006;42.666;23.326;2023-03-04T00:12:35;-24003.00;;;6.66;100.00
23659;BME280;12006;42.666;23.326;2023-03-04T00:15:01;-24002.16;;;6.63;100.00
23659;BME280;12006;42.666;23.326;2023-03-04T00:17:27;-24001.13;;;6.61;100.00
23659;BME280;12006;42.666;23.326;2023-03-04T00:19:54;-24000.94;;;6.60;100.00
23659;BME280;12006;42.666;23.326;2023-03-04T00:22:20;-23998.19;;;6.52;100.00
23659;BME280;12006;42.666;23.326;2023-03-04T00:24:46;-23997.84;;;6.51;100.00
23659;BME280;12006;42.666;23.326;2023-03-04T00:27:11;-23996.81;;;6.48;100.00
23659;BME280;12006;42.666;23.326;2023-03-04T00:29:36;-23999.41;;;6.56;100.00
23659;BME280;12006;42.666;23.326;2023-03-04T00:32:02;-23999.22;;;6.55;100.00
23659;BME280;12006;42.666;23.326;2023-03-04T00:34:27;-24003.00;;;6.66;100.00
23659;BME280;12006;42.666;23.326;2023-03-04T00:36:53;-23999.75;;;6.57;100.00
23659;BME280;12006;42.666;23.326;2023-03-04T00:39:19;-24002.84;;;6.65;100.00
23659;BME280;12006;42.666;23.326;2023-03-04T00:41:44;-24004.22;;;6.69;100.00
23659;BME280;12006;42.666;23.326;2023-03-04T00:44:10;-24004.03;;;6.69;100.00
23659;BME280;12006;42.666;23.326;2023-03-04T00:46:35;-24001.63;;;6.62;100.00
23659;BME280;12006;42.666;23.326;2023-03-04T00:49:01;-24003.19;;;6.66;100.00
23659;BME280;12006;42.666;23.326;2023-03-04T00:51:26;-24004.03;;;6.69;100.00
23659;BME280;12006;42.666;23.326;2023-03-04T00:53:51;-24003.00;;;6.66;100.00
23659;BME280;12006;42.666;23.326;2023-03-04T00:56:17;-24001.28;;;6.61;100.00
23659;BME280;12006;42.666;23.326;2023-03-04T00:58:43;-24003.34;;;6.67;100.00
23659;BME280;12006;42.666;23.326;2023-03-04T01:01:08;-24005.75;;;6.74;100.00
23659;BME280;12006;42.666;23.326;2023-03-04T01:03:33;-24008.34;;;6.81;100.00
23659;BME280;12006;42.666;23.326;2023-03-04T01:05:59;-24011.09;;;6.89;100.00
23659;BME280;12006;42.666;23.326;2023-03-04T01:08:25;-24011.25;;;6.90;100.00
23659;BME280;12006;42.666;23.326;2023-03-04T01:10:51;-24013.31;;;6.96;100.00
23659;BME280;12006;42.666;23.326;2023-03-04T01:13:17;-24011.59;;;6.91;100.00
23659;BME280;12006;42.666;23.326;2023-03-04T01:15:43;-24009.19;;;6.84;100.00
23659;BME280;12006;42.666;23.326;2023-03-04T01:18:08;-24007.47;;;6.79;100.00
23659;BME280;12006;42.666;23.326;2023-03-04T01:20:34;-24005.75;;;6.74;100.00
23659;BME280;12006;42.666;23.326;2023-03-04T01:22:59;-24004.56;;;6.70;100.00
23659;BME280;12006;42.666;23.326;2023-03-04T01:25:25;-24001.81;;;6.63;100.00
23659;BME280;12006;42.666;23.326;2023-03-04T01:27:50;-23999.06;;;6.55;100.00
23659;BME280;12006;42.666;23.326;2023-03-04T01:30:16;-23995.97;;;6.46;100.00
23659;BME280;12006;42.666;23.326;2023-03-04T01:32:41;-23993.72;;;6.39;100.00
23659;BME280;12006;42.666;23.326;2023-03-04T01:35:07;-23991.81;;;6.34;100.00
23659;BME280;12006;42.666;23.326;2023-03-04T01:37:33;-23990.09;;;6.29;100.00
23659;BME280;12006;42.666;23.326;2023-03-04T01:39:58;-23987.53;;;6.21;100.00
23659;BME280;12006;42.666;23.326;2023-03-04T01:42:25;-23987.00;;;6.20;100.00
23659;BME280;12006;42.666;23.326;2023-03-04T01:44:52;-23987.69;;;6.22;100.00
23659;BME280;12006;42.666;23.326;2023-03-04T01:47:18;-23985.81;;;6.16;100.00
23659;BME280;12006;42.666;23.326;2023-03-04T01:49:46;-23987.88;;;6.22;100.00
23659;BME280;12006;42.666;23.326;2023-03-04T01:52:15;-23988.56;;;6.24;100.00
23659;BME280;12006;42.666;23.326;2023-03-04T01:54:40;-23988.22;;;6.23;100.00
23659;BME280;12006;42.666;23.326;2023-03-04T01:57:15;-23989.25;;;6.26;100.00
23659;BME280;12006;42.666;23.326;2023-03-04T01:59:41;-23986.66;;;6.19;100.00
23659;BME280;12006;42.666;23.326;2023-03-04T02:02:06;-23984.78;;;6.13;100.00
23659;BME280;12006;42.666;23.326;2023-03-04T02:04:33;-23981.69;;;6.04;100.00
23659;BME280;12006;42.666;23.326;2023-03-04T02:06:59;-23979.63;;;5.99;100.00
23659;BME280;12006;42.666;23.326;2023-03-04T02:09:25;-23978.25;;;5.95;100.00
23659;BME280;12006;42.666;23.326;2023-03-04T02:11:51;-23976.69;;;5.90;100.00
23659;BME280;12006;42.666;23.326;2023-03-04T02:14:18;-23975.81;;;5.88;100.00
23659;BME280;12006;42.666;23.326;2023-03-04T02:16:44;-23975.16;;;5.86;100.00
23659;BME280;12006;42.666;23.326;2023-03-04T02:22:17;-23972.72;;;5.79;100.00
23659;BME280;12006;42.666;23.326;2023-03-04T02:24:46;-23968.25;;;5.66;100.00
23659;BME280;12006;42.666;23.326;2023-03-04T02:27:13;-23968.59;;;5.67;100.00
23659;BME280;12006;42.666;23.326;2023-03-04T02:29:38;-23971.00;;;5.74;100.00
23659;BME280;12006;42.666;23.326;2023-03-04T02:32:04;-23971.88;;;5.76;100.00
23659;BME280;12006;42.666;23.326;2023-03-04T02:34:32;-23975.16;;;5.86;100.00
23659;BME280;12006;42.666;23.326;2023-03-04T02:37:00;-23974.63;;;5.84;100.00
23659;BME280;12006;42.666;23.326;2023-03-04T02:39:33;-23977.53;;;5.93;100.00
23659;BME280;12006;42.666;23.326;2023-03-04T02:42:00;-23978.25;;;5.95;100.00
23659;BME280;12006;42.666;23.326;2023-03-04T02:44:28;-23978.75;;;5.96;100.00
23659;BME280;12006;42.666;23.326;2023-03-04T02:46:55;-23976.69;;;5.90;100.00
23659;BME280;12006;42.666;23.326;2023-03-04T02:49:22;-23972.72;;;5.79;100.00
23659;BME280;12006;42.666;23.326;2023-03-04T02:54:39;-23971.00;;;5.74;100.00
23659;BME280;12006;42.666;23.326;2023-03-04T02:57:07;-23968.75;;;5.67;100.00
23659;BME280;12006;42.666;23.326;2023-03-04T02:59:34;-23968.25;;;5.66;100.00
23659;BME280;12006;42.666;23.326;2023-03-04T03:02:00;-23968.59;;;5.67;100.00
23659;BME280;12006;42.666;23.326;2023-03-04T03:04:26;-23968.59;;;5.67;100.00
23659;BME280;12006;42.666;23.326;2023-03-04T03:06:52;-23967.56;;;5.64;100.00
23659;BME280;12006;42.666;23.326;2023-03-04T03:09:18;-23964.47;;;5.55;100.00
23659;BME280;12006;42.666;23.326;2023-03-04T03:11:44;-23962.22;;;5.48;100.00
23659;BME280;12006;42.666;23.326;2023-03-04T03:14:10;-23960.69;;;5.44;100.00
23659;BME280;12006;42.666;23.326;2023-03-04T03:16:35;-23959.47;;;5.40;100.00
23659;BME280;12006;42.666;23.326;2023-03-04T03:19:01;-23958.09;;;5.37;100.00
23659;BME280;12006;42.666;23.326;2023-03-04T03:21:26;-23957.59;;;5.35;100.00
23659;BME280;12006;42.666;23.326;2023-03-04T03:23:52;-23957.94;;;5.36;100.00
23659;BME280;12006;42.666;23.326;2023-03-04T03:26:18;-23957.59;;;5.35;100.00
23659;BME280;12006;42.666;23.326;2023-03-04T03:28:43;-23955.69;;;5.30;100.00
23659;BME280;12006;42.666;23.326;2023-03-04T03:31:09;-23955.84;;;5.30;100.00
23659;BME280;12006;42.666;23.326;2023-03-04T03:33:34;-23954.47;;;5.26;100.00
23659;BME280;12006;42.666;23.326;2023-03-04T03:36:00;-23952.41;;;5.20;100.00
23659;BME280;12006;42.666;23.326;2023-03-04T03:38:26;-23949.66;;;5.12;100.00
23659;BME280;12006;42.666;23.326;2023-03-04T03:40:51;-23947.44;;;5.06;100.00
23659;BME280;12006;42.666;23.326;2023-03-04T03:43:17;-23945.34;;;5.00;100.00
23659;BME280;12006;42.666;23.326;2023-03-04T03:45:43;-23943.13;;;4.93;100.00
23659;BME280;12006;42.666;23.326;2023-03-04T03:48:08;-23940.72;;;4.86;100.00
23659;BME280;12006;42.666;23.326;2023-03-04T03:50:33;-23939.69;;;4.83;100.00
23659;BME280;12006;42.666;23.326;2023-03-04T03:52:59;-23937.63;;;4.78;100.00
23659;BME280;12006;42.666;23.326;2023-03-04T03:55:26;-23934.88;;;4.70;100.00
23659;BME280;12006;42.666;23.326;2023-03-04T03:57:51;-23934.16;;;4.68;100.00
23659;BME280;12006;42.666;23.326;2023-03-04T04:00:17;-23932.09;;;4.62;100.00
23659;BME280;12006;42.666;23.326;2023-03-04T04:02:42;-23931.75;;;4.61;100.00
23659;BME280;12006;42.666;23.326;2023-03-04T04:05:09;-23929.34;;;4.54;100.00
23659;BME280;12006;42.666;23.326;2023-03-04T04:07:36;-23929.34;;;4.54;100.00
23659;BME280;12006;42.666;23.326;2023-03-04T04:10:02;-23928.66;;;4.52;100.00
23659;BME280;12006;42.666;23.326;2023-03-04T04:12:27;-23927.63;;;4.49;100.00
23659;BME280;12006;42.666;23.326;2023-03-04T04:14:53;-23928.66;;;4.52;100.00
23659;BME280;12006;42.666;23.326;2023-03-04T04:17:18;-23929.69;;;4.55;100.00
23659;BME280;12006;42.666;23.326;2023-03-04T04:19:43;-23928.31;;;4.51;100.00
23659;BME280;12006;42.666;23.326;2023-03-04T04:22:14;-23926.94;;;4.47;100.00
23659;BME280;12006;42.666;23.326;2023-03-04T04:24:41;-23925.72;;;4.43;100.00
23659;BME280;12006;42.666;23.326;2023-03-04T04:27:06;-23924.53;;;4.40;100.00
23659;BME280;12006;42.666;23.326;2023-03-04T04:29:32;-23920.06;;;4.27;100.00
23659;BME280;12006;42.666;23.326;2023-03-04T04:31:57;-23918.84;;;4.23;100.00
23659;BME280;12006;42.666;23.326;2023-03-04T04:34:23;-23917.31;;;4.19;100.00
23659;BME280;12006;42.666;23.326;2023-03-04T04:36:49;-23917.31;;;4.19;100.00
23659;BME280;12006;42.666;23.326;2023-03-04T04:39:14;-23917.13;;;4.19;100.00
23659;BME280;12006;42.666;23.326;2023-03-04T04:41:42;-23914.53;;;4.11;100.00
23659;BME280;12006;42.666;23.326;2023-03-04T04:44:08;-23912.31;;;4.05;100.00
23659;BME280;12006;42.666;23.326;2023-03-04T04:46:35;-23908.69;;;3.94;100.00
23659;BME280;12006;42.666;23.326;2023-03-04T04:49:01;-23910.75;;;4.00;100.00
23659;BME280;12006;42.666;23.326;2023-03-04T04:51:27;-23910.41;;;3.99;100.00
23659;BME280;12006;42.666;23.326;2023-03-04T04:53:53;-23909.03;;;3.95;100.00
23659;BME280;12006;42.666;23.326;2023-03-04T04:56:21;-23908.00;;;3.92;100.00
23659;BME280;12006;42.666;23.326;2023-03-04T04:58:47;-23904.91;;;3.83;100.00
23659;BME280;12006;42.666;23.326;2023-03-04T05:01:13;-23907.31;;;3.90;100.00
23659;BME280;12006;42.666;23.326;2023-03-04T05:03:40;-23910.75;;;4.00;100.00
23659;BME280;12006;42.666;23.326;2023-03-04T05:06:07;-23910.25;;;3.99;100.00
23659;BME280;12006;42.666;23.326;2023-03-04T05:08:33;-23909.03;;;3.95;100.00
23659;BME280;12006;42.666;23.326;2023-03-04T05:10:59;-23910.41;;;3.99;100.00
23659;BME280;12006;42.666;23.326;2023-03-04T05:13:25;-23912.66;;;4.06;100.00
23659;BME280;12006;42.666;23.326;2023-03-04T05:15:52;-23917.31;;;4.19;100.00
23659;BME280;12006;42.666;23.326;2023-03-04T05:18:18;-23920.41;;;4.28;100.00
23659;BME280;12006;42.666;23.326;2023-03-04T05:20:44;-23923.50;;;4.37;100.00
23659;BME280;12006;42.666;23.326;2023-03-04T05:23:10;-23928.66;;;4.52;100.00
23659;BME280;12006;42.666;23.326;2023-03-04T05:25:35;-23932.09;;;4.62;100.00
23659;BME280;12006;42.666;23.326;2023-03-04T05:28:01;-23934.88;;;4.70;100.00
23659;BME280;12006;42.666;23.326;2023-03-04T05:30:26;-23938.47;;;4.80;100.00
23659;BME280;12006;42.666;23.326;2023-03-04T05:32:52;-23942.59;;;4.92;100.00
23659;BME280;12006;42.666;23.326;2023-03-04T05:35:18;-23944.50;;;4.97;100.00
23659;BME280;12006;42.666;23.326;2023-03-04T05:37:43;-23945.88;;;5.01;100.00
23659;BME280;12006;42.666;23.326;2023-03-04T05:40:09;-23944.16;;;4.96;100.00
23659;BME280;12006;42.666;23.326;2023-03-04T05:42:35;-23944.50;;;4.97;100.00
23659;BME280;12006;42.666;23.326;2023-03-04T05:45:00;-23948.13;;;5.08;100.00
23659;BME280;12006;42.666;23.326;2023-03-04T05:47:25;-23956.56;;;5.32;100.00
23659;BME280;12006;42.666;23.326;2023-03-04T05:49:51;-23961.03;;;5.45;100.00
23659;BME280;12006;42.666;23.326;2023-03-04T05:52:16;-23963.59;;;5.52;100.00
23659;BME280;12006;42.666;23.326;2023-03-04T05:54:41;-23965.31;;;5.57;100.00
23659;BME280;12006;42.666;23.326;2023-03-04T05:57:07;-23968.75;;;5.67;100.00
23659;BME280;12006;42.666;23.326;2023-03-04T05:59:32;-23970.13;;;5.71;100.00
23659;BME280;12006;42.666;23.326;2023-03-04T06:01:58;-23973.06;;;5.80;100.00
23659;BME280;12006;42.666;23.326;2023-03-04T06:04:23;-23976.34;;;5.89;100.00
23659;BME280;12006;42.666;23.326;2023-03-04T06:06:48;-23978.94;;;5.97;100.00
23659;BME280;12006;42.666;23.326;2023-03-04T06:09:14;-23978.94;;;5.97;100.00
23659;BME280;12006;42.666;23.326;2023-03-04T06:11:40;-23979.78;;;5.99;100.00
23659;BME280;12006;42.666;23.326;2023-03-04T06:14:05;-23979.94;;;6.00;100.00
23659;BME280;12006;42.666;23.326;2023-03-04T06:16:31;-23981.16;;;6.03;100.00
23659;BME280;12006;42.666;23.326;2023-03-04T06:18:56;-23982.72;;;6.07;100.00
23659;BME280;12006;42.666;23.326;2023-03-04T06:21:22;-23988.72;;;6.25;100.00
23659;BME280;12006;42.666;23.326;2023-03-04T06:23:47;-23994.25;;;6.41;100.00
23659;BME280;12006;42.666;23.326;2023-03-04T06:26:13;-23998.72;;;6.54;100.00
23659;BME280;12006;42.666;23.326;2023-03-04T06:28:43;-24004.03;;;6.69;100.00
23659;BME280;12006;42.666;23.326;2023-03-04T06:31:09;-24007.13;;;6.78;100.00
23659;BME280;12006;42.666;23.326;2023-03-04T06:33:35;-24010.22;;;6.87;100.00
23659;BME280;12006;42.666;23.326;2023-03-04T06:36:01;-24012.13;;;6.92;100.00
23659;BME280;12006;42.666;23.326;2023-03-04T06:38:27;-24014.88;;;7.00;100.00
23659;BME280;12006;42.666;23.326;2023-03-04T06:40:52;-24019.88;;;7.15;100.00
23659;BME280;12006;42.666;23.326;2023-03-04T06:43:18;-24019.00;;;7.12;100.00
23659;BME280;12006;42.666;23.326;2023-03-04T06:45:44;-24019.69;;;7.14;100.00
23659;BME280;12006;42.666;23.326;2023-03-04T06:48:10;-24012.97;;;6.95;100.00
23659;BME280;12006;42.666;23.326;2023-03-04T06:50:35;-24017.28;;;7.07;100.00
23659;BME280;12006;42.666;23.326;2023-03-04T06:53:00;-24022.63;;;7.22;100.00
23659;BME280;12006;42.666;23.326;2023-03-04T06:55:26;-24029.16;;;7.41;100.00
23659;BME280;12006;42.666;23.326;2023-03-04T06:57:51;-24035.00;;;7.58;100.00
23659;BME280;12006;42.666;23.326;2023-03-04T07:00:17;-24038.59;;;7.69;100.00
23659;BME280;12006;42.666;23.326;2023-03-04T07:02:43;-24040.50;;;7.74;100.00
23659;BME280;12006;42.666;23.326;2023-03-04T07:05:09;-24042.56;;;7.80;100.00
23659;BME280;12006;42.666;23.326;2023-03-04T07:07:35;-24037.91;;;7.67;100.00
23659;BME280;12006;42.666;23.326;2023-03-04T07:10:00;-24031.56;;;7.48;100.00
23659;BME280;12006;42.666;23.326;2023-03-04T07:12:26;-24030.53;;;7.45;100.00
23659;BME280;12006;42.666;23.326;2023-03-04T07:14:51;-24029.66;;;7.43;100.00
23659;BME280;12006;42.666;23.326;2023-03-04T07:17:17;-24032.59;;;7.51;100.00
23659;BME280;12006;42.666;23.326;2023-03-04T07:19:42;-24026.06;;;7.32;100.00
23659;BME280;12006;42.666;23.326;2023-03-04T07:22:08;-24015.56;;;7.02;100.00
23659;BME280;12006;42.666;23.326;2023-03-04T07:24:34;-24011.09;;;6.89;100.00
23659;BME280;12006;42.666;23.326;2023-03-04T07:26:59;-24013.84;;;6.97;100.00
23659;BME280;12006;42.666;23.326;2023-03-04T07:29:25;-24011.94;;;6.92;100.00
23659;BME280;12006;42.666;23.326;2023-03-04T07:31:50;-24018.66;;;7.11;100.00
23659;BME280;12006;42.666;23.326;2023-03-04T07:34:16;-24021.56;;;7.20;100.00
23659;BME280;12006;42.666;23.326;2023-03-04T07:36:41;-24022.97;;;7.23;100.00
23659;BME280;12006;42.666;23.326;2023-03-04T07:39:09;-24023.63;;;7.25;100.00
23659;BME280;12006;42.666;23.326;2023-03-04T07:41:35;-24025.19;;;7.30;100.00
23659;BME280;12006;42.666;23.326;2023-03-04T07:44:02;-24024.50;;;7.28;100.00
23659;BME280;12006;42.666;23.326;2023-03-04T07:46:28;-24025.88;;;7.32;100.00
23659;BME280;12006;42.666;23.326;2023-03-04T07:48:55;-24028.28;;;7.39;100.00
23659;BME280;12006;42.666;23.326;2023-03-04T07:51:22;-24033.44;;;7.54;100.00
23659;BME280;12006;42.666;23.326;2023-03-04T07:53:51;-24038.09;;;7.67;100.00
23659;BME280;12006;42.666;23.326;2023-03-04T07:56:19;-24039.13;;;7.70;100.00
23659;BME280;12006;42.666;23.326;2023-03-04T07:58:45;-24040.16;;;7.73;100.00
23659;BME280;12006;42.666;23.326;2023-03-04T08:01:16;-24040.31;;;7.74;100.00
23659;BME280;12006;42.666;23.326;2023-03-04T08:03:42;-24045.47;;;7.88;100.00
23659;BME280;12006;42.666;23.326;2023-03-04T08:06:10;-24050.97;;;8.04;100.00
23659;BME280;12006;42.666;23.326;2023-03-04T08:08:36;-24055.63;;;8.18;100.00
23659;BME280;12006;42.666;23.326;2023-03-04T08:11:10;-24059.41;;;8.29;100.00
23659;BME280;12006;42.666;23.326;2023-03-04T08:13:35;-24062.50;;;8.38;100.00
23659;BME280;12006;42.666;23.326;2023-03-04T08:16:02;-24061.13;;;8.34;100.00
23659;BME280;12006;42.666;23.326;2023-03-04T08:18:28;-24064.91;;;8.44;100.00
23659;BME280;12006;42.666;23.326;2023-03-04T08:20:53;-24066.63;;;8.49;100.00
23659;BME280;12006;42.666;23.326;2023-03-04T08:23:19;-24069.53;;;8.58;100.00
23659;BME280;12006;42.666;23.326;2023-03-04T08:25:45;-24063.88;;;8.42;100.00
23659;BME280;12006;42.666;23.326;2023-03-04T08:28:11;-24075.38;;;8.75;100.00
23659;BME280;12006;42.666;23.326;2023-03-04T08:30:38;-24080.19;;;8.89;100.00
23659;BME280;12006;42.666;23.326;2023-03-04T08:33:04;-24079.34;;;8.86;100.00
23659;BME280;12006;42.666;23.326;2023-03-04T08:35:30;-24083.47;;;8.98;100.00
23659;BME280;12006;42.666;23.326;2023-03-04T08:37:55;-24081.41;;;8.92;100.00
23659;BME280;12006;42.666;23.326;2023-03-04T08:40:21;-24076.25;;;8.77;100.00
23659;BME280;12006;42.666;23.326;2023-03-04T08:42:46;-24073.84;;;8.70;100.00
23659;BME280;12006;42.666;23.326;2023-03-04T08:45:12;-24070.91;;;8.62;100.00
23659;BME280;12006;42.666;23.326;2023-03-04T08:47:37;-24068.50;;;8.55;100.00
23659;BME280;12006;42.666;23.326;2023-03-04T08:50:05;-24068.16;;;8.54;100.00
23659;BME280;12006;42.666;23.326;2023-03-04T08:52:30;-24068.00;;;8.53;100.00
23659;BME280;12006;42.666;23.326;2023-03-04T08:54:56;-24071.09;;;8.62;100.00
23659;BME280;12006;42.666;23.326;2023-03-04T08:57:22;-24073.16;;;8.68;100.00
23659;BME280;12006;42.666;23.326;2023-03-04T08:59:48;-24081.41;;;8.92;100.00
23659;BME280;12006;42.666;23.326;2023-03-04T09:02:13;-24084.81;;;9.02;100.00
23659;BME280;12006;42.666;23.326;2023-03-04T09:04:38;-24097.03;;;9.37;100.00
23659;BME280;12006;42.666;23.326;2023-03-04T09:07:04;-24107.31;;;9.67;100.00
23659;BME280;12006;42.666;23.326;2023-03-04T09:09:30;-24115.06;;;9.89;100.00
23659;BME280;12006;42.666;23.326;2023-03-04T09:11:55;-24123.31;;;10.13;100.00
23659;BME280;12006;42.666;23.326;2023-03-04T09:14:21;-24122.28;;;10.10;100.00
23659;BME280;12006;42.666;23.326;2023-03-04T09:16:46;-24139.09;;;10.59;100.00
23659;BME280;12006;42.666;23.326;2023-03-04T09:19:11;-24148.38;;;10.86;100.00
23659;BME280;12006;42.666;23.326;2023-03-04T09:21:37;-24146.81;;;10.81;100.00
23659;BME280;12006;42.666;23.326;2023-03-04T09:24:02;-24149.75;;;10.89;100.00
23659;BME280;12006;42.666;23.326;2023-03-04T09:26:28;-24155.75;;;11.07;100.00
23659;BME280;12006;42.666;23.326;2023-03-04T09:28:57;-24163.13;;;11.28;100.00
23659;BME280;12006;42.666;23.326;2023-03-04T09:31:23;-24175.13;;;11.63;100.00
23659;BME280;12006;42.666;23.326;2023-03-04T09:33:52;-24187.84;;;12.00;100.00
23659;BME280;12006;42.666;23.326;2023-03-04T09:36:18;-24181.16;;;11.86;100.00
23659;BME280;12006;42.666;23.326;2023-03-04T09:38:43;-23864.88;;;11.94;100.00
23659;BME280;12006;42.666;23.326;2023-03-04T09:41:17;-23866.25;;;11.98;100.00
23659;BME280;12006;42.666;23.326;2023-03-04T09:43:44;-23870.13;;;12.09;100.00
23659;BME280;12006;42.666;23.326;2023-03-04T09:46:14;-23223.00;;;11.84;100.00
23659;BME280;12006;42.666;23.326;2023-03-04T09:48:47;-23223.50;;;11.85;100.00
23659;BME280;12006;42.666;23.326;2023-03-04T09:54:08;-23548.19;;;12.02;100.00
23659;BME280;12006;42.666;23.326;2023-03-04T09:56:39;-22899.28;;;11.70;100.00
23659;BME280;12006;42.666;23.326;2023-03-04T10:01:53;-22853.16;;;10.28;100.00
23659;BME280;12006;42.666;23.326;2023-03-04T10:04:33;-23157.78;;;9.86;100.00
23659;BME280;12006;42.666;23.326;2023-03-04T10:07:01;-23790.69;;;9.76;100.00
23659;BME280;12006;42.666;23.326;2023-03-04T10:09:31;-24114.53;;;9.88;100.00
23659;BME280;12006;42.666;23.326;2023-03-04T10:12:12;-24131.19;;;10.36;100.00
23659;BME280;12006;42.666;23.326;2023-03-04T10:14:45;-24145.97;;;10.79;100.00
23659;BME280;12006;42.666;23.326;2023-03-04T10:17:23;-24155.09;;;11.10;100.00
23659;BME280;12006;42.666;23.326;2023-03-04T10:19:56;-23848.16;;;11.45;100.00
23659;BME280;12006;42.666;23.326;2023-03-04T10:22:32;-23857.28;;;11.72;100.00
23659;BME280;12006;42.666;23.326;2023-03-04T10:25:14;-23541.53;;;11.82;100.00
23659;BME280;12006;42.666;23.326;2023-03-04T10:27:41;-23223.50;;;11.85;100.00
23659;BME280;12006;42.666;23.326;2023-03-04T10:30:19;-23217.59;;;11.67;100.00
23659;BME280;12006;42.666;23.326;2023-03-04T10:32:47;-23544.53;;;11.91;100.00
23659;BME280;12006;42.666;23.326;2023-03-04T10:35:12;-23550.50;;;12.09;100.00
23659;BME280;12006;42.666;23.326;2023-03-04T10:37:45;-23549.19;;;12.05;100.00
23659;BME280;12006;42.666;23.326;2023-03-04T10:40:21;-23856.44;;;11.69;100.00
23659;BME280;12006;42.666;23.326;2023-03-04T10:42:48;-23539.88;;;11.77;100.00
23659;BME280;12006;42.666;23.326;2023-03-04T10:45:22;-23537.03;;;11.68;100.00
23659;BME280;12006;42.666;23.326;2023-03-04T10:47:53;-23538.19;;;11.72;100.00
23659;BME280;12006;42.666;23.326;2023-03-04T10:50:27;-23531.38;;;11.51;100.00
23659;BME280;12006;42.666;23.326;2023-03-04T10:52:54;-23532.72;;;11.55;100.00
23659;BME280;12006;42.666;23.326;2023-03-04T10:55:41;-23529.88;;;11.47;100.00
23659;BME280;12006;42.666;23.326;2023-03-04T10:58:12;-23204.19;;;11.27;100.00
23659;BME280;12006;42.666;23.326;2023-03-04T11:00:39;-23829.41;;;10.90;100.00
23659;BME280;12006;42.666;23.326;2023-03-04T11:06:04;-24141.69;;;10.72;100.00
23659;BME280;12006;42.666;23.326;2023-03-04T11:08:30;-24139.28;;;10.59;100.00
23659;BME280;12006;42.666;23.326;2023-03-04T11:10:55;-24144.28;;;10.79;100.00
23659;BME280;12006;42.666;23.326;2023-03-04T11:13:24;-24143.91;;;10.73;100.00
23659;BME280;12006;42.666;23.326;2023-03-04T11:21:05;-24141.84;;;10.67;100.00
23659;BME280;12006;42.666;23.326;2023-03-04T11:23:49;-24143.56;;;10.72;100.00
23659;BME280;12006;42.666;23.326;2023-03-04T11:26:29;-24149.22;;;10.88;100.00
23659;BME280;12006;42.666;23.326;2023-03-04T11:29:10;-24146.31;;;10.80;100.00
23659;BME280;12006;42.666;23.326;2023-03-04T11:37:38;-24167.09;;;11.45;100.00
23659;BME280;12006;42.666;23.326;2023-03-04T11:42:53;-24163.16;;;11.34;100.00
23659;BME280;12006;42.666;23.326;2023-03-04T11:45:39;-24160.56;;;11.26;100.00
23659;BME280;12006;42.666;23.326;2023-03-04T11:54:07;-24139.47;;;10.65;100.00
23659;BME280;12006;42.666;23.326;2023-03-04T11:56:50;-24136.34;;;10.51;100.00
23659;BME280;12006;42.666;23.326;2023-03-04T11:59:33;-24141.66;;;10.66;100.00
23659;BME280;12006;42.666;23.326;2023-03-04T12:02:16;-24144.75;;;10.75;100.00
23659;BME280;12006;42.666;23.326;2023-03-04T12:05:19;-24151.47;;;10.94;100.00
23659;BME280;12006;42.666;23.326;2023-03-04T12:08:15;-24155.41;;;11.06;100.00
23659;BME280;12006;42.666;23.326;2023-03-04T12:16:20;-24141.53;;;10.71;100.00
23659;BME280;12006;42.666;23.326;2023-03-04T12:29:57;-24131.41;;;10.42;100.00
23659;BME280;12006;42.666;23.326;2023-03-04T12:35:32;-24122.44;;;10.11;100.00
23659;BME280;12006;42.666;23.326;2023-03-04T12:40:52;-24115.06;;;9.89;100.00
23659;BME280;12006;42.666;23.326;2023-03-04T12:52:00;-24118.16;;;9.98;100.00
23659;BME280;12006;42.666;23.326;2023-03-04T12:54:32;-24121.25;;;10.07;100.00
23659;BME280;12006;42.666;23.326;2023-03-04T12:57:05;-24126.41;;;10.22;100.00
23659;BME280;12006;42.666;23.326;2023-03-04T12:59:36;-24134.47;;;10.45;100.00
23659;BME280;12006;42.666;23.326;2023-03-04T13:02:28;-24140.66;;;10.63;100.00
23659;BME280;12006;42.666;23.326;2023-03-04T13:10:31;-24163.47;;;11.29;100.00
23659;BME280;12006;42.666;23.326;2023-03-04T13:12:58;-24174.63;;;11.61;100.00
23659;BME280;12006;42.666;23.326;2023-03-04T13:17:54;-24165.72;;;11.41;100.00
23659;BME280;12006;42.666;23.326;2023-03-04T13:20:23;-24178.75;;;11.79;100.00
23659;BME280;12006;42.666;23.326;2023-03-04T13:25:37;-24175.66;;;11.70;100.00
23659;BME280;12006;42.666;23.326;2023-03-04T13:28:14;-24177.38;;;11.75;100.00
23659;BME280;12006;42.666;23.326;2023-03-04T13:43:48;-24186.13;;;12.00;100.00
23659;BME280;12006;42.666;23.326;2023-03-04T13:51:36;-24180.66;;;11.84;100.00
23659;BME280;12006;42.666;23.326;2023-03-04T13:54:31;-24182.53;;;11.90;100.00
23659;BME280;12006;42.666;23.326;2023-03-04T13:59:32;-24177.72;;;11.76;100.00
23659;BME280;12006;42.666;23.326;2023-03-04T14:02:17;-24178.22;;;11.72;100.00
23659;BME280;12006;42.666;23.326;2023-03-04T14:07:27;-24184.56;;;11.90;100.00
23659;BME280;12006;42.666;23.326;2023-03-04T14:10:05;-24185.44;;;11.98;100.00
23659;BME280;12006;42.666;23.326;2023-03-04T14:12:43;-24185.44;;;11.98;100.00
23659;BME280;12006;42.666;23.326;2023-03-04T14:17:37;-24188.38;;;12.07;100.00
23659;BME280;12006;42.666;23.326;2023-03-04T14:20:20;-24183.75;;;11.93;100.00
23659;BME280;12006;42.666;23.326;2023-03-04T14:22:45;-24179.44;;;11.81;100.00